Time;durP1;ratioP1;P1;durP2;ratioP2;P2;SDS_P1;SDS_P2;PMS_P1;PMS_P2;Temp;Humidity;BMP_temperature;BMP_pressure;BME280_temperature;BME280_humidity;BME280_pressure;Samples;Min_cycle;Max_cycle;Signal;HPM_P1;HPM_P2
2021/08/05 00:02:19;;;;;;;13.70;6.25;;;;;;;20.02;80.93;100211.58;1769771;81;21823;-81
2021/08/05 00:05:25;;;;;;;14.93;6.37;;;;;;;19.98;81.35;100210.37;1776777;80;21362;-81
2021/08/05 00:08:30;;;;;;;9.55;6.70;;;;;;;19.98;81.62;100208.14;1783362;80;21823;-81
2021/08/05 00:11:36;;;;;;;15.03;7.40;;;;;;;19.95;81.32;100206.70;1783584;80;21874;-81
2021/08/05 00:14:45;;;;;;;14.73;7.35;;;;;;;19.93;81.23;100208.02;1784698;80;21894;-81
2021/08/05 00:17:50;;;;;;;12.63;7.40;;;;;;;19.93;80.93;100206.08;1771709;80;21300;-81
2021/08/05 00:20:56;;;;;;;13.70;6.58;;;;;;;19.96;80.72;100197.83;1784900;80;21362;-81
2021/08/05 00:24:01;;;;;;;13.48;6.95;;;;;;;19.97;80.71;100196.19;1783672;80;21362;-81
2021/08/05 00:27:07;;;;;;;17.37;7.25;;;;;;;19.98;80.56;100192.32;1783387;80;21239;-81
2021/08/05 00:30:12;;;;;;;12.07;7.60;;;;;;;19.99;80.29;100189.84;1784621;80;21323;-81
2021/08/05 00:33:19;;;;;;;11.53;7.47;;;;;;;20.00;79.78;100192.95;1783688;80;21382;-81
2021/08/05 00:36:26;;;;;;;13.80;8.28;;;;;;;20.02;79.19;100187.98;1783470;80;21165;-81
2021/08/05 00:39:32;;;;;;;16.40;8.45;;;;;;;20.01;78.91;100194.62;1785147;80;21295;-81
2021/08/05 00:42:37;;;;;;;18.87;8.53;;;;;;;20.02;78.73;100189.37;1783836;80;21897;-81
2021/08/05 00:45:43;;;;;;;12.93;8.28;;;;;;;20.05;78.41;100189.45;1784228;80;21244;-81
2021/08/05 00:48:48;;;;;;;14.87;8.30;;;;;;;20.03;77.97;100186.89;1785047;80;21244;-81
2021/08/05 00:51:54;;;;;;;15.70;8.75;;;;;;;20.03;77.79;100192.44;1784801;80;21248;-81
2021/08/05 00:54:59;;;;;;;18.02;8.18;;;;;;;20.02;77.70;100192.15;1784973;80;21300;-80
2021/08/05 00:58:04;;;;;;;15.72;8.35;;;;;;;20.00;77.72;100199.04;1783402;80;21296;-81
2021/08/05 01:01:16;;;;;;;16.67;8.80;;;;;;;19.97;77.85;100198.97;1784160;80;21272;-80
2021/08/05 01:04:22;;;;;;;15.15;8.40;;;;;;;19.96;77.80;100196.44;1785115;80;21472;-80
2021/08/05 01:07:37;;;;;;;15.05;9.10;;;;;;;19.93;77.33;100204.69;1783587;80;21220;-80
2021/08/05 01:11:00;;;;;;;18.82;9.28;;;;;;;19.84;76.98;100206.13;1780692;80;21723;-81
2021/08/05 01:14:08;;;;;;;14.18;8.10;;;;;;;19.74;77.48;100203.11;1785088;80;21840;-81
2021/08/05 01:17:13;;;;;;;11.45;7.60;;;;;;;19.69;78.44;100200.20;1785765;80;21887;-80
2021/08/05 01:20:22;;;;;;;10.70;7.90;;;;;;;19.62;78.61;100192.00;1785040;80;21287;-81
2021/08/05 01:23:37;;;;;;;14.23;7.65;;;;;;;19.54;78.80;100182.60;1784042;80;21300;-81
2021/08/05 01:27:01;;;;;;;9.98;7.35;;;;;;;19.45;79.70;100184.87;1784795;80;21292;-81
2021/08/05 01:30:07;;;;;;;12.40;7.83;;;;;;;19.35;80.69;100174.36;1784815;80;21346;-81
2021/08/05 01:33:13;;;;;;;12.23;7.60;;;;;;;19.36;81.37;100164.10;1783837;80;21326;-81
2021/08/05 01:36:19;;;;;;;10.50;7.70;;;;;;;19.39;81.79;100167.80;1783438;80;21877;-81
2021/08/05 01:39:25;;;;;;;17.62;8.18;;;;;;;19.42;81.75;100177.02;1783688;80;21284;-81
2021/08/05 01:42:30;;;;;;;12.05;7.30;;;;;;;19.45;81.28;100184.03;1783569;80;21169;-81
2021/08/05 01:45:36;;;;;;;9.83;7.20;;;;;;;19.42;80.94;100179.78;1784889;80;21688;-81
2021/08/05 01:48:44;;;;;;;12.23;6.90;;;;;;;19.40;80.92;100182.80;1783870;80;21299;-81
2021/08/05 01:51:50;;;;;;;10.60;7.42;;;;;;;19.37;81.13;100178.27;1784377;80;21327;-81
2021/08/05 01:54:57;;;;;;;12.60;7.55;;;;;;;19.38;81.34;100181.34;1785163;80;21157;-81
2021/08/05 01:58:02;;;;;;;11.33;7.67;;;;;;;19.39;81.36;100177.51;1784859;80;22546;-81
2021/08/05 02:01:09;;;;;;;11.78;7.35;;;;;;;19.40;81.22;100171.71;1783245;80;21204;-81
2021/08/05 02:04:43;;;;;;;16.30;7.50;;;;;;;19.43;81.19;100164.83;1783484;80;21819;-81
2021/08/05 02:08:09;;;;;;;11.10;7.17;;;;;;;19.44;80.95;100175.41;1776530;80;21244;-81
2021/08/05 02:11:16;;;;;;;11.25;8.10;;;;;;;19.45;80.42;100175.16;1771313;81;21181;-81
2021/08/05 02:14:23;;;;;;;13.25;7.37;;;;;;;19.46;79.44;100168.52;1769941;81;21920;-81
2021/08/05 02:17:29;;;;;;;15.50;6.80;;;;;;;19.46;78.82;100171.30;1771037;81;21178;-81
2021/08/05 02:20:35;;;;;;;11.33;7.17;;;;;;;19.43;77.94;100160.66;1769983;81;21197;-81
2021/08/05 02:23:41;;;;;;;11.73;7.80;;;;;;;19.41;77.58;100158.14;1770614;81;21296;-81
2021/08/05 02:26:47;;;;;;;11.97;7.72;;;;;;;19.43;77.60;100156.51;1762588;81;21304;-81
2021/08/05 02:29:52;;;;;;;11.40;6.87;;;;;;;19.46;77.45;100161.59;1771060;81;21174;-81
2021/08/05 02:32:57;;;;;;;11.68;7.37;;;;;;;19.50;77.00;100151.71;1770802;81;21323;-80
2021/08/05 02:36:02;;;;;;;11.75;6.53;;;;;;;19.54;76.58;100150.16;1771179;81;21823;-81
2021/08/05 02:39:07;;;;;;;9.93;6.05;;;;;;;19.59;76.16;100148.89;1763047;81;21289;-81
2021/08/05 02:42:13;;;;;;;8.95;6.05;;;;;;;19.70;75.42;100154.17;1771306;81;21291;-81
2021/08/05 02:45:19;;;;;;;13.35;6.70;;;;;;;19.84;74.62;100163.11;1770057;80;21792;-81
2021/08/05 02:48:25;;;;;;;14.87;7.10;;;;;;;19.99;74.01;100155.14;1771445;81;21307;-81
2021/08/05 02:51:30;;;;;;;12.65;7.15;;;;;;;20.23;73.28;100160.67;1771156;81;21331;-81
2021/08/05 02:54:37;;;;;;;12.45;5.45;;;;;;;20.46;72.50;100162.03;1769447;81;21249;-81
2021/08/05 02:57:44;;;;;;;14.23;7.35;;;;;;;20.65;71.53;100159.44;1771104;81;21753;-81
2021/08/05 03:00:51;;;;;;;9.63;6.50;;;;;;;20.81;70.77;100161.13;1770801;81;21820;-81
2021/08/05 03:04:01;;;;;;;16.23;6.72;;;;;;;20.98;70.25;100162.56;1771129;81;21724;-81
2021/08/05 03:07:07;;;;;;;;;;;;;;;21.17;69.16;100166.82;1773796;81;21800;-81
2021/08/05 03:10:14;;;;;;;14.45;7.58;;;;;;;21.33;68.53;100166.61;1769756;80;20241;-81
2021/08/05 03:13:14;;;;;;;13.32;7.17;;;;;;;21.52;68.26;100170.84;1772214;81;21303;-81
2021/08/05 03:16:20;;;;;;;15.60;6.28;;;;;;;21.74;67.55;100179.30;1769669;81;21224;-81
2021/08/05 03:19:27;;;;;;;9.60;7.15;;;;;;;21.91;66.59;100175.94;1771266;81;21296;-80
2021/08/05 03:22:32;;;;;;;10.95;6.90;;;;;;;21.85;66.05;100165.83;1769810;81;21320;-80
2021/08/05 03:25:37;;;;;;;16.42;6.62;;;;;;;21.75;66.80;100169.00;1771423;81;21308;-81
2021/08/05 03:28:43;;;;;;;11.63;6.08;;;;;;;21.80;66.65;100170.47;1770261;81;21217;-80
2021/08/05 03:31:51;;;;;;;11.00;6.30;;;;;;;21.88;65.65;100170.90;1770984;81;21229;-81
2021/08/05 03:34:58;;;;;;;11.83;6.17;;;;;;;22.02;64.30;100170.00;1769496;81;21252;-80
2021/08/05 03:38:04;;;;;;;8.08;5.33;;;;;;;22.23;63.62;100169.77;1771405;81;21181;-81
2021/08/05 03:41:10;;;;;;;7.15;4.65;;;;;;;22.47;62.74;100169.55;1771175;81;21292;-81
2021/08/05 03:44:16;;;;;;;8.85;4.78;;;;;;;22.73;61.42;100174.91;1770224;81;21335;-81
2021/08/05 03:47:22;;;;;;;12.70;5.10;;;;;;;22.91;60.27;100168.48;1769758;81;21316;-82
2021/08/05 03:50:30;;;;;;;16.27;4.97;;;;;;;23.03;58.53;100163.30;1771378;81;21859;-81
2021/08/05 03:53:35;;;;;;;12.33;4.40;;;;;;;23.03;58.18;100157.72;1771326;81;21284;-81
2021/08/05 03:56:41;;;;;;;6.62;4.12;;;;;;;23.02;58.13;100163.02;1771280;81;21725;-81
2021/08/05 03:59:46;;;;;;;7.50;4.37;;;;;;;23.06;58.76;100167.80;1770141;81;21894;-81
2021/08/05 04:02:53;;;;;;;8.98;4.70;;;;;;;23.15;58.70;100166.23;1771376;81;21300;-81
2021/08/05 04:06:00;;;;;;;5.62;4.40;;;;;;;23.22;58.32;100160.43;1769959;81;21296;-81
2021/08/05 04:09:05;;;;;;;9.98;4.22;;;;;;;23.26;57.95;100160.20;1770105;81;21325;-81
2021/08/05 04:12:11;;;;;;;10.15;4.10;;;;;;;23.31;58.40;100162.20;1771443;81;21331;-81
2021/08/05 04:15:16;;;;;;;6.80;4.17;;;;;;;23.33;59.17;100161.37;1770787;81;21311;-81
2021/08/05 04:18:20;;;;;;;4.80;3.87;;;;;;;23.39;58.34;100165.91;1771334;81;21871;-81
2021/08/05 04:21:25;;;;;;;6.25;3.85;;;;;;;23.47;57.74;100159.83;1771324;81;21335;-81
2021/08/05 04:24:31;;;;;;;7.85;3.83;;;;;;;23.57;56.43;100159.94;1769625;81;21264;-81
2021/08/05 04:27:36;;;;;;;5.30;4.17;;;;;;;23.66;55.35;100163.94;1771099;81;21312;-82
2021/08/05 04:30:42;;;;;;;7.10;3.70;;;;;;;23.77;54.86;100164.05;1771349;81;21292;-81
2021/08/05 04:33:47;;;;;;;9.78;4.30;;;;;;;23.91;54.84;100161.08;1770712;81;21312;-81
2021/08/05 04:36:53;;;;;;;5.85;3.58;;;;;;;24.03;53.12;100163.11;1771107;81;21221;-81
2021/08/05 04:39:58;;;;;;;5.20;3.40;;;;;;;24.11;52.04;100167.36;1771167;81;21287;-81
2021/08/05 04:43:05;;;;;;;6.10;3.00;;;;;;;24.15;50.58;100169.34;1771184;81;21308;-81
2021/08/05 04:46:10;;;;;;;5.45;3.35;;;;;;;24.17;50.16;100172.70;1770248;81;21220;-81
2021/08/05 04:49:15;;;;;;;8.20;3.60;;;;;;;24.21;50.17;100161.27;1770230;81;21843;-81
2021/08/05 04:52:22;;;;;;;7.05;3.58;;;;;;;24.26;50.45;100156.27;1770485;81;21308;-81
2021/08/05 04:55:28;;;;;;;9.40;3.58;;;;;;;24.37;50.26;100155.80;1771022;81;21343;-81
2021/08/05 04:58:34;;;;;;;5.15;3.25;;;;;;;24.45;49.10;100153.33;1771476;81;21296;-81
2021/08/05 05:01:39;;;;;;;6.65;3.62;;;;;;;24.53;48.71;100157.58;1770337;81;21764;-81
2021/08/05 05:04:45;;;;;;;9.00;3.50;;;;;;;24.61;48.93;100154.27;1770849;81;21290;-82
2021/08/05 05:07:50;;;;;;;4.58;3.60;;;;;;;24.74;49.65;100149.54;1770703;81;21359;-82
2021/08/05 05:10:50;;;;;;;3.80;2.87;;;;;;;24.90;49.88;100151.02;1775455;80;21173;-81
2021/08/05 05:13:56;;;;;;;6.78;3.25;;;;;;;25.05;49.58;100149.65;1783408;80;21192;-81
2021/08/05 05:17:04;;;;;;;3.15;2.80;;;;;;;25.13;48.90;100146.35;1783772;80;21759;-81
2021/08/05 05:20:11;;;;;;;4.97;3.27;;;;;;;25.26;48.81;100148.31;1783490;80;21902;-81
2021/08/05 05:23:17;;;;;;;6.10;4.08;;;;;;;25.41;48.10;100145.00;1784795;80;21168;-81
2021/08/05 05:26:24;;;;;;;6.30;3.50;;;;;;;25.52;47.67;100148.64;1784153;80;21732;-81
2021/08/05 05:29:29;;;;;;;3.92;3.30;;;;;;;25.58;47.84;100144.70;1784812;80;21304;-82
2021/08/05 05:32:36;;;;;;;4.05;3.12;;;;;;;25.72;48.04;100145.83;1783150;80;21709;-81
2021/08/05 05:35:42;;;;;;;3.98;3.40;;;;;;;25.91;47.90;100146.69;1783495;80;21979;-81
2021/08/05 05:38:47;;;;;;;6.12;3.47;;;;;;;26.08;46.79;100148.64;1783925;80;21299;-81
2021/08/05 05:41:53;;;;;;;3.77;2.95;;;;;;;26.23;46.77;100146.36;1782692;80;21284;-81
2021/08/05 05:44:59;;;;;;;5.00;3.40;;;;;;;26.41;46.71;100140.70;1783895;80;21197;-81
2021/08/05 05:48:04;;;;;;;4.12;3.62;;;;;;;26.52;44.29;100133.13;1737740;82;21306;-81
2021/08/05 05:51:10;;;;;;;5.97;3.35;;;;;;;26.47;44.04;100139.59;1701747;82;21310;-81
2021/08/05 05:54:15;;;;;;;12.88;4.42;;;;;;;26.49;44.74;100146.61;1740262;82;21363;-80
2021/08/05 05:57:21;;;;;;;9.88;4.50;;;;;;;26.64;43.73;100144.87;1733000;82;21833;-81
2021/08/05 06:00:21;;;;;;;11.73;4.55;;;;;;;26.78;43.06;100138.08;1746611;82;21383;-81
2021/08/05 06:03:27;;;;;;;8.53;3.72;;;;;;;26.91;43.45;100148.11;1742837;82;21197;-81
2021/08/05 06:06:32;;;;;;;15.53;4.92;;;;;;;27.03;42.46;100149.16;1745099;82;21200;-81
2021/08/05 06:09:38;;;;;;;8.78;4.25;;;;;;;27.11;42.27;100141.56;1747497;82;21244;-81
2021/08/05 06:12:44;;;;;;;10.50;4.75;;;;;;;27.17;41.88;100135.35;1731705;82;21839;-81
2021/08/05 06:15:49;;;;;;;14.87;5.35;;;;;;;27.24;42.12;100126.89;1729077;82;21157;-81
2021/08/05 06:18:54;;;;;;;15.70;4.25;;;;;;;27.38;42.21;100122.83;1730814;82;21336;-80
2021/08/05 06:22:00;;;;;;;10.43;3.98;;;;;;;27.46;40.81;100126.99;1727281;82;21295;-81
2021/08/05 06:25:06;;;;;;;13.62;4.35;;;;;;;27.61;41.23;100127.43;1727827;82;21169;-81
2021/08/05 06:28:13;;;;;;;10.28;3.72;;;;;;;27.76;39.80;100128.19;1727475;82;21194;-81
2021/08/05 06:31:20;;;;;;;14.38;3.67;;;;;;;27.84;39.91;100123.88;1730524;82;21317;-81
2021/08/05 06:34:26;;;;;;;12.63;4.40;;;;;;;27.91;40.04;100127.77;1731543;82;21591;-81
2021/08/05 06:37:33;;;;;;;6.90;3.50;;;;;;;27.98;40.14;100117.00;1727136;82;21343;-80
2021/08/05 06:40:39;;;;;;;8.18;3.90;;;;;;;28.01;39.37;100126.26;1725813;82;21804;-81
2021/08/05 06:43:44;;;;;;;10.58;3.83;;;;;;;28.05;39.35;100130.16;1727363;82;21201;-81
2021/08/05 06:46:50;;;;;;;9.18;3.20;;;;;;;28.12;38.74;100124.17;1729482;82;21331;-81
2021/08/05 06:49:54;;;;;;;10.70;3.60;;;;;;;28.16;38.28;100120.47;1725498;82;21331;-81
2021/08/05 06:53:00;;;;;;;6.85;3.25;;;;;;;28.19;38.54;100112.86;1728219;82;21283;-81
2021/08/05 06:56:05;;;;;;;21.30;4.37;;;;;;;28.31;38.07;100124.24;1726229;82;21182;-81
2021/08/05 06:59:13;;;;;;;8.58;3.58;;;;;;;28.33;37.67;100108.77;1729314;82;21787;-81
2021/08/05 07:02:18;;;;;;;10.50;3.90;;;;;;;28.44;37.29;100108.09;1730700;82;21391;-81
2021/08/05 07:05:25;;;;;;;18.17;4.05;;;;;;;28.50;37.91;100111.11;1721963;82;21383;-81
2021/08/05 07:08:31;;;;;;;19.20;4.80;;;;;;;28.68;37.58;100110.31;1724413;82;21285;-81
2021/08/05 07:11:36;;;;;;;8.43;4.35;;;;;;;28.85;37.56;100107.58;1728713;82;21181;-81
2021/08/05 07:14:43;;;;;;;14.23;4.40;;;;;;;29.02;36.62;100106.48;1726508;82;22418;-81
2021/08/05 07:17:49;;;;;;;19.65;3.83;;;;;;;29.14;35.80;100113.09;1726304;82;21298;-81
2021/08/05 07:20:57;;;;;;;12.98;4.22;;;;;;;29.21;35.90;100111.55;1730086;82;21806;-81
2021/08/05 07:24:02;;;;;;;8.63;4.05;;;;;;;29.38;35.50;100111.02;1728712;82;21344;-81
2021/08/05 07:27:09;;;;;;;12.73;3.67;;;;;;;29.38;35.50;100111.02;1725363;82;21686;-81
2021/08/05 07:30:15;;;;;;;18.65;6.87;;;;;;;29.52;35.81;100106.84;1724658;82;21299;-81
2021/08/05 07:33:21;;;;;;;14.75;6.10;;;;;;;29.62;36.66;100111.50;1729717;82;21275;-81
2021/08/05 07:36:27;;;;;;;35.13;12.45;;;;;;;29.62;36.66;100111.50;1731501;82;21162;-81
2021/08/05 07:39:31;;;;;;;26.87;10.32;;;;;;;29.74;35.85;100107.06;1728837;82;21292;-81
2021/08/05 07:42:36;;;;;;;21.93;9.33;;;;;;;29.98;35.47;100112.55;1727846;82;21401;-81
2021/08/05 07:45:42;;;;;;;25.72;12.85;;;;;;;30.02;34.37;100115.02;1727450;82;21169;-81
2021/08/05 07:48:47;;;;;;;34.50;14.78;;;;;;;30.04;35.09;100107.64;1726212;82;21875;-81
2021/08/05 07:51:52;;;;;;;27.82;13.90;;;;;;;30.04;35.09;100107.64;1731851;82;21292;-81
2021/08/05 07:55:03;;;;;;;21.73;10.28;;;;;;;30.08;34.19;100111.52;1731230;82;21224;-80
2021/08/05 07:58:07;;;;;;;54.33;20.85;;;;;;;30.10;34.76;100103.56;1726302;82;21938;-81
2021/08/05 08:01:12;;;;;;;45.63;19.52;;;;;;;30.04;34.86;100102.00;1727327;82;21270;-81
2021/08/05 08:04:18;;;;;;;50.12;20.43;;;;;;;29.98;35.49;100101.84;1728615;82;21272;-81
2021/08/05 08:07:23;;;;;;;53.65;20.62;;;;;;;30.02;35.98;100098.67;1727776;82;21615;-81
2021/08/05 08:10:29;;;;;;;42.95;19.90;;;;;;;30.17;35.29;100098.40;1727056;82;21307;-81
2021/08/05 08:13:36;;;;;;;38.17;18.32;;;;;;;30.28;34.76;100095.63;1733732;82;21815;-81
2021/08/05 08:16:42;;;;;;;43.55;18.73;;;;;;;30.46;33.89;100100.08;1731490;82;21565;-81
2021/08/05 08:19:48;;;;;;;35.35;18.98;;;;;;;30.60;32.89;100103.72;1766317;81;21303;-81
2021/08/05 08:23:04;;;;;;;36.73;18.52;;;;;;;30.67;32.92;100092.83;1731886;82;21343;-81
2021/08/05 08:26:10;;;;;;;27.98;13.20;;;;;;;30.72;32.31;100089.92;1768588;81;21565;-81
2021/08/05 08:29:16;;;;;;;32.03;12.15;;;;;;;30.72;32.85;100084.28;1737005;82;21859;-81
2021/08/05 08:32:21;;;;;;;23.42;12.03;;;;;;;30.86;32.84;100082.01;1767359;81;21252;-81
2021/08/05 08:35:27;;;;;;;24.92;11.10;;;;;;;31.03;33.01;100083.02;1768473;81;21324;-81
2021/08/05 08:38:32;;;;;;;22.80;11.48;;;;;;;31.20;32.62;100075.28;1767470;81;21201;-81
2021/08/05 08:41:38;;;;;;;20.60;10.10;;;;;;;31.27;31.76;100069.20;1747878;81;21209;-81
2021/08/05 08:44:43;;;;;;;17.87;7.30;;;;;;;31.32;32.10;100069.66;1734335;82;21827;-81
2021/08/05 08:47:49;;;;;;;19.75;8.38;;;;;;;31.38;32.51;100066.38;1753035;81;21256;-81
2021/08/05 08:50:53;;;;;;;16.95;6.28;;;;;;;31.40;32.17;100058.43;1732239;81;22521;-80
2021/08/05 08:53:59;;;;;;;12.60;5.40;;;;;;;31.39;29.93;100059.59;1711070;82;21286;-81
2021/08/05 08:57:05;;;;;;;11.55;5.15;;;;;;;31.39;29.64;100053.11;1770173;81;21819;-82
2021/08/05 09:00:12;;;;;;;10.03;4.25;;;;;;;31.39;30.29;100051.70;1768145;81;21725;-81
2021/08/05 09:03:20;;;;;;;14.15;5.17;;;;;;;31.42;30.80;100046.80;1764642;81;21276;-80
2021/08/05 09:06:26;;;;;;;8.53;3.80;;;;;;;31.35;28.34;100039.36;1737448;82;21288;-81
2021/08/05 09:09:32;;;;;;;5.42;2.90;;;;;;;31.25;29.40;100046.91;1736917;81;21174;-81
2021/08/05 09:12:42;;;;;;;7.00;2.95;;;;;;;31.20;27.37;100038.56;1762561;79;21137;-81
2021/08/05 09:15:51;;;;;;;3.87;2.00;;;;;;;31.10;28.96;100050.66;1733421;82;21930;-81
2021/08/05 09:18:59;;;;;;;4.58;2.55;;;;;;;31.00;27.54;100055.98;1762806;81;21193;-81
2021/08/05 09:22:05;;;;;;;6.35;2.08;;;;;;;30.87;28.68;100045.59;1770483;81;21776;-81
2021/08/05 09:25:32;;;;;;;4.35;1.80;;;;;;;30.84;30.19;100045.63;1713172;82;21342;-81
2021/08/05 09:28:39;;;;;;;5.40;2.10;;;;;;;30.85;30.18;100040.82;1770969;81;21161;-81
2021/08/05 09:31:48;;;;;;;3.87;2.10;;;;;;;30.96;31.34;100038.00;1725459;82;21315;-81
2021/08/05 09:34:56;;;;;;;2.67;1.80;;;;;;;31.01;31.43;100035.08;1766984;81;21158;-81
2021/08/05 09:38:02;;;;;;;2.87;1.25;;;;;;;31.09;29.75;100035.71;1715649;82;21209;-81
2021/08/05 09:41:16;;;;;;;4.22;1.62;;;;;;;31.04;25.19;100030.19;1715642;82;21160;-81
2021/08/05 09:44:21;;;;;;;2.98;1.70;;;;;;;30.90;27.91;100031.65;1767892;81;21173;-81
2021/08/05 09:47:29;;;;;;;7.42;2.30;;;;;;;30.86;28.91;100034.84;1731015;82;21267;-81
2021/08/05 09:50:34;;;;;;;3.98;2.02;;;;;;;30.77;29.77;100031.97;1738007;82;21209;-81
2021/08/05 09:53:39;;;;;;;4.10;1.62;;;;;;;30.86;29.45;100024.13;1767342;81;21312;-81
2021/08/05 09:56:45;;;;;;;6.17;2.10;;;;;;;30.91;28.89;100022.05;1725312;82;21798;-81
2021/08/05 10:00:17;;;;;;;8.20;1.77;;;;;;;30.97;30.40;100019.34;1770638;81;21740;-81
2021/08/05 10:03:39;;;;;;;3.25;1.85;;;;;;;31.07;31.06;100008.38;1732125;82;21842;-81
2021/08/05 10:07:03;;;;;;;6.78;2.08;;;;;;;31.07;31.04;100005.55;1769350;81;21233;-81
2021/08/05 10:10:07;;;;;;;4.28;1.90;;;;;;;31.11;30.72;100001.52;1731865;82;21810;-81
2021/08/05 10:13:12;;;;;;;1.70;1.60;;;;;;;31.10;29.13;100005.47;1770406;81;21221;-81
2021/08/05 10:16:22;;;;;;;2.27;1.77;;;;;;;31.00;29.07;100001.75;1726516;82;21838;-81
2021/08/05 10:19:27;;;;;;;8.60;2.10;;;;;;;30.87;30.17;99992.77;1708129;84;21772;-81
2021/08/05 10:24:38;;;;;;;4.37;2.33;;;;;;;30.73;31.52;99988.59;1841053;76;28513;-86
2021/08/05 10:27:44;;;;;;;2.70;2.08;;;;;;;30.68;32.21;99983.03;1772311;80;21243;-76
2021/08/05 10:30:49;;;;;;;3.52;1.72;;;;;;;30.77;32.75;99987.34;1768153;80;21919;-88
2021/08/05 10:33:55;;;;;;;5.22;2.10;;;;;;;30.84;31.03;99992.58;1762722;80;21290;-86
2021/08/05 10:37:03;;;;;;;6.75;1.95;;;;;;;30.83;31.13;99986.67;1768963;80;21287;-76
2021/08/05 10:40:08;;;;;;;3.98;1.60;;;;;;;30.89;30.59;99977.75;1765905;80;21339;-76
2021/08/05 10:43:13;;;;;;;3.40;1.75;;;;;;;30.91;30.64;99985.34;1699278;80;21243;-87
2021/08/05 10:46:19;;;;;;;2.47;1.60;;;;;;;30.99;31.41;99983.72;1762517;80;21182;-77
2021/08/05 10:49:26;;;;;;;3.30;1.77;;;;;;;31.10;30.69;99975.27;1731957;80;21274;-86
2021/08/05 10:52:50;;;;;;;3.83;1.90;;;;;;;31.15;31.20;99970.89;1770017;80;21291;-77
2021/08/05 10:55:56;;;;;;;2.85;1.87;;;;;;;31.23;31.38;99974.34;1766446;80;21302;-86
2021/08/05 10:59:19;;;;;;;6.10;2.10;;;;;;;31.33;30.09;99971.02;1770726;80;21263;-79
2021/08/05 11:02:26;;;;;;;3.22;1.67;;;;;;;31.34;31.10;99969.89;1771629;80;21243;-76
2021/08/05 11:05:47;;;;;;;4.62;1.82;;;;;;;31.37;30.22;99966.39;1745533;80;21640;-87
2021/08/05 11:08:52;;;;;;;4.20;1.90;;;;;;;31.39;29.21;99964.93;1763042;80;21243;-86
2021/08/05 11:11:58;;;;;;;2.45;1.55;;;;;;;31.22;29.94;99962.79;1779703;80;21184;-76
2021/08/05 11:15:04;;;;;;;2.22;1.50;;;;;;;31.02;29.07;99955.68;1771334;80;21153;-77
2021/08/05 11:18:21;;;;;;;8.25;1.60;;;;;;;30.92;30.02;99950.88;1769510;80;21553;-76
2021/08/05 11:21:31;;;;;;;4.50;1.75;;;;;;;30.77;30.05;99948.69;1766554;80;21804;-76
2021/08/05 11:24:58;;;;;;;7.33;1.63;;;;;;;30.66;29.96;99938.75;1720811;82;21140;-77
2021/08/05 11:28:34;;;;;;;2.40;1.75;;;;;;;30.64;29.29;99931.77;1760340;81;21279;-77
2021/08/05 11:31:42;;;;;;;2.72;1.72;;;;;;;30.64;29.86;99923.30;1753011;81;21154;-86
2021/08/05 11:35:11;;;;;;;7.08;1.87;;;;;;;30.68;30.46;99929.98;1757689;81;21345;-85
2021/08/05 11:38:18;;;;;;;6.30;1.65;;;;;;;30.75;29.92;99923.33;1748831;81;21278;-76
2021/08/05 11:41:22;;;;;;;4.62;1.42;;;;;;;30.86;30.46;99916.84;1740782;82;21321;-77
2021/08/05 11:44:38;;;;;;;2.62;1.45;;;;;;;31.00;29.73;99920.44;1754769;80;21296;-76
2021/08/05 11:47:48;;;;;;;3.10;1.65;;;;;;;31.12;29.88;99906.56;1753356;81;21609;-76
2021/08/05 11:50:54;;;;;;;3.90;1.70;;;;;;;31.15;30.93;99909.30;1757378;81;21781;-76
2021/08/05 11:54:00;;;;;;;4.25;1.55;;;;;;;31.12;29.45;99907.98;1760861;81;21327;-76
2021/08/05 11:57:09;;;;;;;2.40;1.57;;;;;;;31.11;29.87;99900.67;1719610;82;21153;-84
2021/08/05 12:00:19;;;;;;;7.40;1.83;;;;;;;31.16;30.65;99900.53;1746090;81;21271;-84
2021/08/05 12:03:25;;;;;;;4.35;1.70;;;;;;;31.19;30.83;99900.45;1748500;81;21279;-86
2021/08/05 12:06:31;;;;;;;7.65;1.92;;;;;;;31.26;31.78;99902.25;1704202;83;21833;-75
2021/08/05 12:09:37;;;;;;;4.08;1.80;;;;;;;31.30;30.66;99887.77;1706038;82;21298;-76
2021/08/05 12:12:49;;;;;;;4.92;2.10;;;;;;;31.39;30.38;99887.81;1748782;81;21330;-76
2021/08/05 12:16:01;;;;;;;2.45;1.70;;;;;;;31.61;31.42;99890.53;1750128;80;21172;-76
2021/08/05 12:19:11;;;;;;;4.12;2.40;;;;;;;31.83;31.08;99883.17;1759313;81;21173;-76
2021/08/05 12:22:17;;;;;;;4.25;2.05;;;;;;;31.99;30.76;99877.28;1759220;81;21595;-86
2021/08/05 12:25:40;;;;;;;5.97;2.00;;;;;;;32.03;29.82;99880.54;1756933;80;21188;-76
2021/08/05 12:28:52;;;;;;;5.95;1.92;;;;;;;31.96;29.92;99872.31;1769689;80;21272;-76
2021/08/05 12:31:57;;;;;;;2.95;1.80;;;;;;;31.92;29.67;99874.13;1766320;80;21291;-74
2021/08/05 12:35:02;;;;;;;5.37;1.80;;;;;;;31.80;29.78;99871.89;1770302;80;21278;-83
2021/08/05 12:38:17;;;;;;;4.95;1.90;;;;;;;31.64;29.99;99869.28;1700719;83;21847;-86
2021/08/05 12:41:49;;;;;;;3.42;1.77;;;;;;;31.38;29.20;99860.69;1734528;82;21824;-76
2021/08/05 12:44:57;;;;;;;4.75;1.95;;;;;;;31.24;29.95;99865.85;1713770;83;22213;-76
2021/08/05 12:48:09;;;;;;;3.25;1.90;;;;;;;31.24;29.96;99867.27;1699678;84;21333;-77
2021/08/05 12:51:14;;;;;;;3.20;1.75;;;;;;;31.32;30.84;99865.66;1699498;84;21645;-85
2021/08/05 12:54:24;;;;;;;5.70;2.30;;;;;;;31.49;31.03;99867.15;1722197;82;21347;-86
2021/08/05 12:57:32;;;;;;;6.37;2.17;;;;;;;31.65;31.53;99859.05;1748180;82;21279;-86
2021/08/05 13:00:38;;;;;;;5.42;1.67;;;;;;;31.73;30.89;99865.31;1738885;82;21208;-84
2021/08/05 13:03:51;;;;;;;3.98;1.82;;;;;;;31.69;31.01;99871.37;1711233;83;21300;-84
2021/08/05 13:07:03;;;;;;;2.65;1.62;;;;;;;31.69;31.06;99854.98;1712814;82;21700;-84
2021/08/05 13:10:08;;;;;;;3.12;1.87;;;;;;;31.76;31.21;99870.87;1737360;82;21306;-74
2021/08/05 13:13:15;;;;;;;3.12;1.55;;;;;;;31.74;30.07;99864.14;1728403;83;21739;-84
2021/08/05 13:16:36;;;;;;;6.42;2.15;;;;;;;31.66;30.14;99861.29;1743817;82;21176;-75
2021/08/05 13:20:10;;;;;;;5.17;1.60;;;;;;;31.67;30.38;99862.98;1718556;83;21550;-74
2021/08/05 13:23:16;;;;;;;2.92;1.60;;;;;;;31.70;30.45;99860.30;1729440;83;21169;-84
2021/08/05 13:26:43;;;;;;;3.67;1.60;;;;;;;31.74;30.25;99855.66;1736488;82;21316;-75
2021/08/05 13:29:54;;;;;;;5.35;1.55;;;;;;;31.75;30.03;99848.84;1721615;83;21815;-84
2021/08/05 13:32:59;;;;;;;3.37;1.32;;;;;;;31.75;30.15;99855.91;1721685;83;21304;-75
2021/08/05 13:36:05;;;;;;;2.92;1.37;;;;;;;31.69;29.90;99860.64;1721603;83;21205;-83
2021/08/05 13:39:12;;;;;;;7.62;1.75;;;;;;;31.63;30.26;99847.83;1721633;83;21348;-76
2021/08/05 13:42:16;;;;;;;1.62;1.50;;;;;;;31.47;30.76;99849.67;1722482;83;21853;-86
2021/08/05 13:45:21;;;;;;;4.00;1.80;;;;;;;31.42;30.48;99844.17;1722478;83;21303;-77
2021/08/05 13:48:28;;;;;;;2.58;1.60;;;;;;;31.39;30.78;99852.48;1722580;83;21735;-86
2021/08/05 13:51:32;;;;;;;17.23;2.95;;;;;;;31.25;30.94;99843.50;1722368;83;21304;-86
2021/08/05 13:54:37;;;;;;;6.30;2.10;;;;;;;31.09;31.13;99843.66;1722614;83;21170;-86
2021/08/05 13:57:42;;;;;;;4.50;1.87;;;;;;;30.98;31.50;99847.92;1722478;83;21173;-76
2021/08/05 14:00:50;;;;;;;6.80;2.08;;;;;;;30.88;31.98;99841.14;1721234;83;21324;-86
2021/08/05 14:03:56;;;;;;;6.67;2.17;;;;;;;30.83;31.57;99846.34;1722646;83;21781;-86
2021/08/05 14:07:03;;;;;;;6.95;1.87;;;;;;;30.75;31.51;99845.12;1721045;83;21651;-86
2021/08/05 14:10:11;;;;;;;4.80;2.10;;;;;;;30.69;31.73;99839.91;1722480;83;21323;-86
2021/08/05 14:13:16;;;;;;;5.65;1.87;;;;;;;30.63;32.21;99840.63;1722614;83;21280;-85
2021/08/05 14:16:21;;;;;;;6.35;1.85;;;;;;;30.57;32.70;99833.42;1721880;83;21236;-87
2021/08/05 14:19:27;;;;;;;6.15;1.80;;;;;;;30.51;33.07;99830.48;1721058;83;21272;-86
2021/08/05 14:22:33;;;;;;;10.00;1.98;;;;;;;30.48;33.10;99824.06;1721648;83;21315;-76
2021/08/05 14:25:38;;;;;;;7.87;2.45;;;;;;;30.49;33.57;99835.05;1721068;83;21245;-86
2021/08/05 14:28:44;;;;;;;5.33;1.82;;;;;;;30.54;33.87;99827.86;1745171;82;21916;-86
2021/08/05 14:31:51;;;;;;;2.98;1.95;;;;;;;30.59;33.63;99829.72;1748212;82;21339;-85
2021/08/05 14:34:56;;;;;;;3.25;1.92;;;;;;;30.59;34.01;99826.07;1749031;82;21153;-85